Time;durP1;ratioP1;P1;durP2;ratioP2;P2;SDS_P1;SDS_P2;PMS_P1;PMS_P2;Temp;Humidity;BMP_temperature;BMP_pressure;BME280_temperature;BME280_humidity;BME280_pressure;Samples;Min_cycle;Max_cycle;Signal;HPM_P1;HPM_P2
2022/04/19 00:01:50;;;;;;;12.57;6.77;;;;;;;6.48;74.47;101352.94;5056299;28;20416;-89
2022/04/19 00:04:16;;;;;;;13.00;6.47;;;;;;;6.48;74.39;101347.63;5055948;28;20074;-88
2022/04/19 00:06:44;;;;;;;9.90;6.50;;;;;;;6.50;74.48;101350.06;5038357;28;20029;-88
2022/04/19 00:09:09;;;;;;;9.80;6.97;;;;;;;6.46;73.81;101341.69;5055428;28;20075;-88
2022/04/19 00:11:34;;;;;;;11.07;6.93;;;;;;;6.38;73.80;101344.66;5056288;28;20053;-89
2022/04/19 00:14:00;;;;;;;11.47;7.03;;;;;;;6.32;74.30;101335.66;5056304;28;20384;-87
2022/04/19 00:16:25;;;;;;;12.00;6.73;;;;;;;6.29;74.29;101337.94;5056307;28;20048;-87
2022/04/19 00:18:50;;;;;;;13.03;7.17;;;;;;;6.24;75.16;101337.75;5055442;28;20184;-87
2022/04/19 00:21:17;;;;;;;10.80;7.13;;;;;;;6.16;75.02;101334.34;5056033;28;20029;-87
2022/04/19 00:23:43;;;;;;;11.38;7.32;;;;;;;6.16;74.83;101338.84;5056091;28;20025;-87
2022/04/19 00:26:09;;;;;;;12.30;7.47;;;;;;;6.10;74.85;101337.88;5055583;28;20468;-87
2022/04/19 00:28:36;;;;;;;10.73;7.07;;;;;;;6.09;75.14;101341.56;5055733;28;20024;-87
2022/04/19 00:31:03;;;;;;;11.20;7.50;;;;;;;6.10;74.97;101340.53;5055744;28;20618;-88
2022/04/19 00:33:29;;;;;;;13.45;7.28;;;;;;;6.11;76.73;101331.53;5038192;28;20029;-87
2022/04/19 00:35:54;;;;;;;11.45;7.10;;;;;;;6.11;76.37;101336.03;5056040;28;20028;-87
2022/04/19 00:38:20;;;;;;;11.50;7.00;;;;;;;6.05;76.32;101329.72;5055936;28;20611;-87
2022/04/19 00:40:45;;;;;;;12.23;7.33;;;;;;;6.04;76.91;101323.59;5055350;28;20025;-88
2022/04/19 00:43:12;;;;;;;10.65;7.18;;;;;;;5.98;76.56;101326.25;5055825;28;20021;-87
2022/04/19 00:45:37;;;;;;;10.60;7.05;;;;;;;6.01;76.05;101336.50;5036705;28;20041;-89
2022/04/19 00:48:03;;;;;;;12.57;6.87;;;;;;;5.99;75.85;101333.22;5052765;28;20084;-89
2022/04/19 00:50:30;;;;;;;15.55;7.72;;;;;;;5.94;76.35;101336.50;5052713;28;20471;-88
2022/04/19 00:52:57;;;;;;;12.43;7.20;;;;;;;5.88;76.29;101322.22;5053127;28;20096;-87
2022/04/19 00:55:23;;;;;;;9.18;6.82;;;;;;;5.90;76.82;101330.00;5052813;28;20025;-87
2022/04/19 00:57:50;;;;;;;9.77;6.60;;;;;;;5.86;76.52;101329.59;5053065;28;20028;-87
2022/04/19 01:00:16;;;;;;;11.83;6.80;;;;;;;5.83;77.22;101329.22;5052358;28;20370;-86
2022/04/19 01:18:15;;;;;;;8.43;6.50;;;;;;;5.54;77.25;101334.88;5164024;22;20044;-89
2022/04/19 01:21:38;;;;;;;10.07;6.90;;;;;;;5.49;77.12;101336.53;5076861;28;20291;-88
2022/04/19 01:27:50;;;;;;;10.40;7.18;;;;;;;5.38;77.71;101322.06;5095386;28;20070;-88
2022/04/19 01:37:44;;;;;;;12.95;8.10;;;;;;;5.15;77.30;101299.44;5074055;28;20127;-88
2022/04/19 01:43:30;;;;;;;12.70;7.82;;;;;;;5.19;78.19;101300.66;4991200;28;20697;-88
2022/04/19 01:46:46;;;;;;;9.87;7.50;;;;;;;5.22;77.66;101302.91;4991495;28;20114;-88
2022/04/19 01:49:52;;;;;;;11.20;7.55;;;;;;;5.19;77.31;101313.94;4971377;28;20569;-88
2022/04/19 01:59:28;;;;;;;12.57;7.80;;;;;;;4.97;78.11;101285.00;4969315;28;20775;-88
2022/04/19 02:04:42;;;;;;;14.60;7.17;;;;;;;4.98;78.19;101299.91;5200295;22;20392;-88
2022/04/19 02:07:08;;;;;;;11.93;7.85;;;;;;;4.93;78.76;101299.72;5071743;28;20043;-88
2022/04/19 02:09:33;;;;;;;14.03;8.53;;;;;;;4.89;78.99;101303.00;5071619;28;20031;-88
2022/04/19 02:11:58;;;;;;;13.00;8.43;;;;;;;4.89;79.49;101303.81;5072479;28;20036;-88
2022/04/19 02:14:23;;;;;;;12.43;8.30;;;;;;;4.86;79.46;101298.94;5321111;22;20020;-88
2022/04/19 02:16:52;;;;;;;12.13;8.57;;;;;;;4.78;80.01;101302.63;5053482;28;20037;-88
2022/04/19 02:19:18;;;;;;;17.10;8.30;;;;;;;4.72;79.68;101303.44;5071115;28;20021;-88
2022/04/19 02:21:43;;;;;;;10.73;7.87;;;;;;;4.63;79.40;101297.53;5071542;28;20515;-89
2022/04/19 02:24:08;;;;;;;11.97;7.77;;;;;;;4.61;80.24;101302.22;5071499;28;20028;-88
2022/04/19 02:26:34;;;;;;;12.37;7.83;;;;;;;4.56;80.59;101299.41;5072220;28;20035;-88
2022/04/19 02:28:59;;;;;;;10.82;7.85;;;;;;;4.53;81.37;101297.16;5053529;28;20111;-89
2022/04/19 02:31:27;;;;;;;12.93;8.37;;;;;;;4.48;81.72;101291.63;5072045;28;20499;-87
2022/04/19 02:33:54;;;;;;;13.77;8.02;;;;;;;4.46;82.10;101291.00;5072246;28;20049;-87
2022/04/19 02:36:21;;;;;;;10.02;7.85;;;;;;;4.44;82.19;101291.22;5071634;28;20027;-87
2022/04/19 02:38:46;;;;;;;12.15;7.72;;;;;;;4.39;82.47;101288.38;5071384;28;20549;-87
2022/04/19 02:41:11;;;;;;;13.47;8.73;;;;;;;4.34;83.26;101289.00;5053683;28;20036;-87
2022/04/19 02:43:38;;;;;;;11.30;7.87;;;;;;;4.35;82.39;101285.31;5071818;28;20074;-87
2022/04/19 02:46:04;;;;;;;15.27;8.73;;;;;;;4.32;83.00;101284.88;5071649;28;20024;-88
2022/04/19 02:48:30;;;;;;;14.90;8.98;;;;;;;4.27;82.52;101290.00;5071227;28;20123;-87
2022/04/19 02:50:57;;;;;;;14.00;9.05;;;;;;;4.22;82.45;101287.94;5070793;28;20531;-87
2022/04/19 02:53:23;;;;;;;13.60;9.45;;;;;;;4.21;82.45;101286.31;5069943;28;20419;-87
2022/04/19 02:55:48;;;;;;;13.83;9.20;;;;;;;4.19;82.78;101288.38;5070527;28;20029;-87
2022/04/19 02:58:13;;;;;;;14.93;9.47;;;;;;;4.17;82.25;101291.22;5070976;28;20021;-88
2022/04/19 03:00:39;;;;;;;17.90;9.63;;;;;;;4.17;82.39;101282.47;5071043;28;20024;-87
2022/04/19 03:03:05;;;;;;;15.13;9.37;;;;;;;4.15;82.42;101282.66;5052680;28;20576;-87
2022/04/19 03:05:33;;;;;;;15.23;10.32;;;;;;;4.14;82.41;101286.31;5071169;28;20024;-87
2022/04/19 03:07:59;;;;;;;15.65;10.35;;;;;;;4.16;82.59;101284.28;5071352;28;20035;-88
2022/04/19 03:10:24;;;;;;;19.07;9.73;;;;;;;4.18;82.50;101281.44;5070094;28;20024;-87
2022/04/19 03:12:51;;;;;;;14.53;9.60;;;;;;;4.18;82.28;101287.56;5070909;28;20516;-87
2022/04/19 03:15:18;;;;;;;19.25;10.27;;;;;;;4.17;82.32;101277.16;5070647;28;20039;-87
2022/04/19 03:17:43;;;;;;;16.15;9.98;;;;;;;4.17;82.23;101288.56;5070708;28;20024;-87
2022/04/19 03:20:09;;;;;;;17.93;10.77;;;;;;;4.11;82.48;101284.06;5070472;28;20032;-88
2022/04/19 03:28:04;;;;;;;15.80;10.40;;;;;;;3.97;83.06;101279.78;5070555;28;20074;-87
2022/04/19 03:30:30;;;;;;;17.33;10.10;;;;;;;3.90;83.58;101275.31;5052554;28;20283;-89
2022/04/19 03:32:55;;;;;;;15.87;10.67;;;;;;;3.84;83.63;101270.78;5070816;28;20078;-88
2022/04/19 03:35:21;;;;;;;18.17;11.13;;;;;;;3.76;83.71;101277.09;5070660;28;20021;-87
2022/04/19 03:37:46;;;;;;;14.33;10.30;;;;;;;3.72;84.22;101273.22;5071062;28;20076;-88
2022/04/19 03:40:11;;;;;;;17.37;10.93;;;;;;;3.65;83.87;101288.31;5070344;28;20035;-88
2022/04/19 03:42:40;;;;;;;14.60;10.60;;;;;;;3.58;84.37;101282.97;5070786;28;20029;-88
2022/04/19 03:45:06;;;;;;;16.80;10.73;;;;;;;3.57;84.95;101283.19;5052883;28;20037;-88
2022/04/19 03:47:34;;;;;;;16.35;10.35;;;;;;;3.50;84.47;101285.81;5070889;28;20673;-88
2022/04/19 03:50:00;;;;;;;16.73;10.85;;;;;;;3.47;84.74;101286.19;5070615;28;20027;-87
2022/04/19 03:52:25;;;;;;;18.33;10.60;;;;;;;3.40;85.33;101280.88;5071012;28;20029;-87
2022/04/19 03:54:53;;;;;;;18.55;10.98;;;;;;;3.38;85.52;101285.56;5070784;28;20039;-88
2022/04/19 03:57:19;;;;;;;19.35;11.20;;;;;;;3.36;85.93;101289.44;5070769;28;20025;-88
2022/04/19 03:59:45;;;;;;;16.77;10.73;;;;;;;3.31;86.36;101288.19;5070546;28;20043;-88
2022/04/19 04:02:10;;;;;;;19.80;11.00;;;;;;;3.31;86.31;101287.34;5073907;28;20029;-88
2022/04/19 04:04:36;;;;;;;17.17;10.60;;;;;;;3.25;85.72;101282.88;5076342;28;20364;-89
2022/04/19 04:07:06;;;;;;;17.30;11.45;;;;;;;3.24;86.09;101286.53;5072893;28;20064;-88
2022/04/19 04:09:35;;;;;;;22.58;11.38;;;;;;;3.23;86.27;101292.84;5070257;28;20037;-87
2022/04/19 04:12:09;;;;;;;19.70;12.25;;;;;;;3.22;86.43;101288.56;5053737;28;20028;-87
2022/04/19 04:14:35;;;;;;;19.83;11.90;;;;;;;3.18;86.32;101285.50;5071432;28;20016;-88
2022/04/19 04:17:01;;;;;;;18.33;10.47;;;;;;;3.14;86.12;101282.41;5071946;28;20098;-88
2022/04/19 04:19:26;;;;;;;20.77;11.93;;;;;;;3.15;86.04;101281.38;5052748;28;20782;-88
2022/04/19 04:21:51;;;;;;;19.90;11.80;;;;;;;3.10;85.86;101283.81;5054945;28;20020;-88
2022/04/19 04:24:16;;;;;;;18.23;11.93;;;;;;;3.08;86.15;101280.56;5056596;28;20174;-88
2022/04/19 04:26:42;;;;;;;16.83;11.57;;;;;;;3.03;86.03;101283.78;5075048;28;20025;-89
2022/04/19 04:29:07;;;;;;;19.10;12.23;;;;;;;3.02;87.26;101283.97;5073768;28;20533;-88
2022/04/19 04:31:33;;;;;;;20.73;12.40;;;;;;;3.01;86.85;101292.94;5074524;28;20451;-87
2022/04/19 04:33:58;;;;;;;18.27;11.45;;;;;;;2.98;86.14;101286.22;5074953;28;20023;-88
2022/04/19 04:36:24;;;;;;;20.17;12.63;;;;;;;2.96;87.23;101285.59;5074843;28;20028;-88
2022/04/19 04:38:49;;;;;;;17.70;11.53;;;;;;;3.00;86.70;101293.94;5074102;28;20021;-88
2022/04/19 04:41:15;;;;;;;21.13;12.07;;;;;;;3.01;86.90;101292.94;5073949;28;20032;-87
2022/04/19 04:43:40;;;;;;;17.73;12.02;;;;;;;3.06;87.12;101300.28;5074448;28;20406;-88
2022/04/19 04:51:37;;;;;;;18.83;12.27;;;;;;;3.13;86.82;101303.78;5074630;28;20135;-88
2022/04/19 04:54:02;;;;;;;19.67;12.47;;;;;;;3.19;86.78;101305.66;5073592;28;20055;-87
2022/04/19 04:56:28;;;;;;;24.47;12.57;;;;;;;3.24;86.40;101299.78;5056147;28;20119;-88
2022/04/19 04:58:53;;;;;;;19.53;12.57;;;;;;;3.32;86.79;101302.25;5073386;28;20378;-88
2022/04/19 05:01:19;;;;;;;22.60;12.43;;;;;;;3.41;86.15;101309.00;5073856;28;20033;-88
2022/04/19 05:03:45;;;;;;;21.00;12.65;;;;;;;3.47;86.15;101302.91;5073100;28;20399;-88
2022/04/19 05:06:12;;;;;;;21.57;12.70;;;;;;;3.59;86.17;101307.66;5073404;28;20483;-88
2022/04/19 05:08:38;;;;;;;19.48;11.30;;;;;;;3.68;85.94;101306.44;5073353;28;20025;-88
2022/04/19 05:11:03;;;;;;;20.50;12.07;;;;;;;3.74;85.75;101303.00;5074022;28;20029;-88
2022/04/19 05:13:28;;;;;;;20.93;11.83;;;;;;;3.81;85.18;101313.59;5074062;28;20070;-88
2022/04/19 05:15:54;;;;;;;17.13;11.33;;;;;;;3.86;84.91;101310.34;5074207;28;20024;-88
2022/04/19 05:18:19;;;;;;;18.73;11.60;;;;;;;3.89;84.38;101309.94;5056143;28;20522;-88
2022/04/19 05:20:45;;;;;;;22.83;11.63;;;;;;;3.93;84.43;101316.50;5073233;28;20769;-88
2022/04/19 05:23:10;;;;;;;18.10;11.13;;;;;;;3.93;84.02;101304.03;5073984;28;20020;-88
2022/04/19 05:25:35;;;;;;;20.53;12.50;;;;;;;4.01;84.07;101313.66;5073635;28;20028;-87
2022/04/19 05:28:01;;;;;;;22.70;12.27;;;;;;;4.13;84.40;101316.50;5073056;28;20530;-87
2022/04/19 05:30:27;;;;;;;21.47;11.90;;;;;;;4.21;83.72;101312.84;5073435;28;20056;-87
2022/04/19 05:32:53;;;;;;;24.10;12.90;;;;;;;4.31;83.31;101313.28;5072316;28;20029;-88
2022/04/19 05:35:18;;;;;;;21.55;11.98;;;;;;;4.44;83.01;101309.81;5073786;28;20017;-87
2022/04/19 05:37:45;;;;;;;21.57;12.20;;;;;;;4.55;82.69;101316.34;5072975;28;20035;-88
2022/04/19 05:40:10;;;;;;;19.90;12.33;;;;;;;4.62;81.83;101301.19;5073277;28;20370;-88
2022/04/19 05:42:36;;;;;;;23.33;12.80;;;;;;;4.77;81.52;101308.13;5073623;28;20116;-87
2022/04/19 05:45:01;;;;;;;22.47;12.40;;;;;;;4.88;81.22;101317.28;5072827;28;20116;-88
2022/04/19 05:47:27;;;;;;;20.87;12.60;;;;;;;4.96;80.04;101309.91;5072678;28;20020;-88
2022/04/19 05:49:54;;;;;;;25.00;12.27;;;;;;;5.09;79.84;101310.94;5072095;28;20051;-88
2022/04/19 05:52:20;;;;;;;19.33;11.73;;;;;;;5.25;79.56;101313.13;5072623;28;20074;-88
2022/04/19 05:54:45;;;;;;;22.27;12.17;;;;;;;5.38;78.79;101319.41;5073288;28;20286;-87
2022/04/19 05:57:13;;;;;;;20.07;11.77;;;;;;;5.50;78.63;101314.25;5072901;28;20485;-88
2022/04/19 05:59:38;;;;;;;19.75;11.57;;;;;;;5.59;78.18;101319.09;5072365;28;20472;-88
2022/04/19 06:04:54;;;;;;;21.73;12.25;;;;;;;5.94;77.22;101323.19;5072077;28;20032;-87
2022/04/19 06:07:25;;;;;;;20.08;11.20;;;;;;;6.13;75.49;101325.97;5054600;28;20037;-88
2022/04/19 06:09:51;;;;;;;22.23;11.07;;;;;;;6.29;73.92;101320.13;5071805;28;20067;-89
2022/04/19 06:12:17;;;;;;;24.48;11.90;;;;;;;6.49;74.24;101324.47;5072972;28;20082;-89
2022/04/19 06:14:42;;;;;;;19.77;10.80;;;;;;;6.63;73.06;101328.66;5055678;28;20028;-89
2022/04/19 06:17:22;;;;;;;22.23;9.95;;;;;;;6.76;71.53;101337.56;5077295;28;20020;-89
2022/04/19 06:19:48;;;;;;;19.10;10.27;;;;;;;6.93;70.66;101333.28;5039677;28;20078;-89
2022/04/19 06:22:13;;;;;;;13.73;8.60;;;;;;;7.08;69.40;101332.94;5056774;28;20021;-88
2022/04/19 06:24:38;;;;;;;19.93;10.33;;;;;;;7.31;68.61;101341.28;5055516;28;20060;-89
2022/04/19 06:27:04;;;;;;;18.80;9.80;;;;;;;7.43;68.58;101336.81;5056697;28;20399;-90
2022/04/19 06:29:29;;;;;;;19.15;9.93;;;;;;;7.60;67.12;101342.38;5054492;28;20102;-89
2022/04/19 06:31:55;;;;;;;17.30;9.63;;;;;;;7.68;66.69;101339.38;5053193;28;20036;-89
2022/04/19 06:34:20;;;;;;;21.33;10.03;;;;;;;7.85;66.81;101344.09;5053275;28;20021;-89
2022/04/19 06:36:46;;;;;;;24.75;10.20;;;;;;;7.99;66.07;101345.53;5053084;28;20171;-90
2022/04/19 06:39:13;;;;;;;17.23;9.93;;;;;;;8.11;65.68;101344.75;5052903;28;20025;-89
2022/04/19 06:41:38;;;;;;;20.67;10.63;;;;;;;8.21;64.82;101339.69;5051700;28;20388;-89
2022/04/19 06:44:05;;;;;;;16.30;9.63;;;;;;;8.34;64.48;101352.81;5051470;28;20350;-89
2022/04/19 06:46:30;;;;;;;20.33;11.10;;;;;;;8.51;65.02;101354.00;5052257;28;20029;-89
2022/04/19 06:48:58;;;;;;;16.93;10.33;;;;;;;8.63;63.82;101349.50;5051600;28;20499;-89
2022/04/19 06:51:25;;;;;;;17.45;10.30;;;;;;;8.72;64.39;101340.09;5052209;28;20051;-89
2022/04/19 06:53:51;;;;;;;21.52;10.43;;;;;;;8.87;63.67;101342.28;5052266;28;20041;-89
2022/04/19 06:56:16;;;;;;;23.67;9.57;;;;;;;9.06;63.34;101342.16;5052116;28;20044;-89
2022/04/19 06:58:42;;;;;;;17.17;9.23;;;;;;;9.18;63.01;101342.94;5052511;28;20345;-90
2022/04/19 07:01:08;;;;;;;17.73;9.77;;;;;;;9.34;63.07;101352.09;5034704;28;20415;-88
2022/04/19 07:03:34;;;;;;;18.43;10.73;;;;;;;9.55;62.86;101344.50;5052282;28;20083;-88
2022/04/19 07:06:00;;;;;;;22.30;10.85;;;;;;;9.77;62.40;101357.22;5052039;28;20361;-89
2022/04/19 07:08:25;;;;;;;20.10;9.73;;;;;;;9.94;60.74;101351.88;5052023;28;20092;-89
2022/04/19 07:10:51;;;;;;;24.40;10.47;;;;;;;10.12;60.36;101350.88;5051219;28;20116;-89
2022/04/19 07:13:17;;;;;;;18.73;10.32;;;;;;;10.33;60.06;101359.22;5051995;28;20032;-89
2022/04/19 07:15:42;;;;;;;19.60;9.73;;;;;;;10.48;59.45;101358.69;5033269;28;20033;-89
2022/04/19 07:18:08;;;;;;;24.20;10.00;;;;;;;10.60;58.32;101351.38;5058108;28;20548;-88
2022/04/19 07:28:45;;;;;;;18.90;8.07;;;;;;;10.99;55.17;101356.75;5070722;28;20082;-88
2022/04/19 07:31:10;;;;;;;19.37;9.20;;;;;;;11.10;55.09;101356.91;5071709;28;20028;-88
2022/04/19 07:33:38;;;;;;;18.53;9.00;;;;;;;11.18;53.63;101359.97;5053404;28;20023;-88
2022/04/19 07:36:05;;;;;;;18.10;8.95;;;;;;;11.24;54.52;101363.53;5071682;28;20383;-88
2022/04/19 07:38:31;;;;;;;19.25;8.52;;;;;;;11.34;53.76;101363.66;5054119;28;20119;-89
2022/04/19 07:40:57;;;;;;;17.20;8.73;;;;;;;11.40;53.97;101366.41;5072084;28;20020;-88
2022/04/19 07:43:23;;;;;;;15.70;8.52;;;;;;;11.50;52.77;101371.91;5072639;28;20486;-89
2022/04/19 07:45:48;;;;;;;15.40;8.60;;;;;;;11.49;51.76;101371.06;5073183;28;20025;-89
2022/04/19 07:48:15;;;;;;;21.67;9.50;;;;;;;11.61;53.28;101368.25;5078062;28;20016;-89
2022/04/19 07:50:40;;;;;;;18.20;9.20;;;;;;;11.74;52.60;101374.28;5084737;28;20285;-89
2022/04/19 07:53:05;;;;;;;21.20;8.82;;;;;;;11.88;51.45;101375.50;5090747;28;20013;-89
2022/04/19 07:55:31;;;;;;;16.27;8.67;;;;;;;11.96;51.08;101366.19;5093233;28;20029;-89
2022/04/19 07:57:56;;;;;;;18.83;8.93;;;;;;;12.09;50.76;101365.00;5093513;28;20024;-88
2022/04/19 08:00:27;;;;;;;16.33;8.30;;;;;;;12.24;51.41;101375.09;5059536;28;20502;-88
2022/04/19 08:02:52;;;;;;;15.23;8.07;;;;;;;12.37;50.83;101374.66;5058000;28;20285;-88
2022/04/19 08:05:18;;;;;;;15.57;8.52;;;;;;;12.46;50.44;101377.69;5081595;28;20056;-89
2022/04/19 08:07:43;;;;;;;15.37;7.57;;;;;;;12.55;49.08;101372.63;5082263;28;20031;-88
2022/04/19 08:10:09;;;;;;;15.47;7.67;;;;;;;12.64;48.41;101373.78;5075161;28;20493;-89
2022/04/19 08:12:35;;;;;;;15.25;8.48;;;;;;;12.78;49.34;101374.13;5076267;28;20031;-88
2022/04/19 08:15:00;;;;;;;14.95;7.80;;;;;;;12.91;49.24;101362.13;5075594;28;20025;-89
2022/04/19 08:17:30;;;;;;;16.67;8.03;;;;;;;13.08;47.84;101363.81;5059805;28;20082;-88
2022/04/19 08:19:56;;;;;;;13.63;6.90;;;;;;;13.14;46.16;101363.59;5061583;28;20107;-89
2022/04/19 08:22:21;;;;;;;16.55;7.25;;;;;;;13.27;46.75;101359.59;5089419;28;20031;-89
2022/04/19 08:24:48;;;;;;;14.17;7.93;;;;;;;13.44;47.33;101358.59;5094098;28;20017;-89
2022/04/19 08:27:18;;;;;;;16.23;7.40;;;;;;;13.62;46.79;101357.34;5094777;28;20024;-90
2022/04/19 08:29:43;;;;;;;12.63;5.93;;;;;;;13.80;45.15;101349.84;5093727;28;20074;-90
2022/04/19 08:32:10;;;;;;;13.57;7.43;;;;;;;13.89;44.84;101351.72;5089600;28;20033;-90
2022/04/19 08:34:35;;;;;;;13.52;7.20;;;;;;;14.06;44.99;101347.97;5058135;28;20464;-90
2022/04/19 08:37:02;;;;;;;16.80;7.80;;;;;;;14.13;45.91;101339.63;5074813;28;20032;-90
2022/04/19 08:39:28;;;;;;;14.70;7.45;;;;;;;14.38;45.40;101353.09;5056659;28;20036;-89
2022/04/19 08:44:26;;;;;;;16.65;6.25;;;;;;;14.59;42.22;101346.88;5072900;28;20441;-90
2022/04/19 08:46:57;;;;;;;10.40;5.50;;;;;;;14.68;42.12;101354.16;5074596;28;20024;-89
2022/04/19 08:49:24;;;;;;;10.57;5.32;;;;;;;14.77;41.92;101350.94;5074406;28;20724;-89
2022/04/19 08:51:50;;;;;;;13.90;5.97;;;;;;;14.87;41.27;101355.50;5073491;28;20426;-89
2022/04/19 08:59:43;;;;;;;10.60;5.50;;;;;;;14.96;41.34;101335.78;5199644;22;20051;-90
2022/04/19 09:02:27;;;;;;;10.25;5.80;;;;;;;15.05;41.49;101346.81;5152996;22;20123;-90
2022/04/19 09:05:26;;;;;;;10.77;5.85;;;;;;;15.29;43.10;101360.47;5055829;28;20040;-89
2022/04/19 09:07:53;;;;;;;11.40;5.85;;;;;;;15.32;41.48;101355.59;5054736;28;20029;-89
2022/04/19 09:14:17;;;;;;;9.10;4.85;;;;;;;15.69;40.29;101343.53;5455324;22;20051;-89
2022/04/19 09:17:15;;;;;;;;;;;;;;;;;;;;;
2022/04/19 09:19:42;;;;;;;8.27;4.40;;;;;;;15.76;38.72;101327.81;4988340;28;20279;-90
2022/04/19 09:22:09;;;;;;;8.40;4.60;;;;;;;15.87;39.04;101324.00;5073563;28;20082;-89
2022/04/19 09:25:05;;;;;;;9.32;5.03;;;;;;;15.97;39.29;101325.00;5055893;28;20056;-89
2022/04/19 09:27:48;;;;;;;8.95;5.10;;;;;;;16.20;39.86;101332.38;5144104;22;20056;-88
2022/04/19 09:30:22;;;;;;;8.90;4.60;;;;;;;16.39;38.42;101334.38;5075213;28;20024;-88
2022/04/19 09:33:41;;;;;;;7.88;3.95;;;;;;;16.41;39.37;101337.59;5094384;28;20055;-89
2022/04/19 09:37:21;;;;;;;9.18;4.43;;;;;;;16.45;38.33;101324.31;5012497;28;20034;-89
2022/04/19 09:39:48;;;;;;;8.77;4.15;;;;;;;16.61;38.63;101327.69;4968178;28;20460;-90
2022/04/19 09:42:26;;;;;;;9.48;4.57;;;;;;;16.72;39.18;101331.88;5077897;28;20063;-90
2022/04/19 09:45:13;;;;;;;7.03;3.90;;;;;;;16.92;38.73;101333.53;5098474;28;20024;-89
2022/04/19 09:48:13;;;;;;;7.67;4.33;;;;;;;16.93;38.15;101320.81;4991644;28;20300;-89
2022/04/19 09:51:45;;;;;;;9.25;4.63;;;;;;;17.10;38.33;101328.47;5023388;28;20030;-90
2022/04/19 09:54:44;;;;;;;11.07;5.03;;;;;;;17.03;36.34;101314.50;5004466;28;20101;-89
2022/04/19 09:57:12;;;;;;;11.55;4.88;;;;;;;17.17;37.48;101314.59;5106008;28;20040;-89
2022/04/19 09:59:48;;;;;;;8.50;4.40;;;;;;;17.31;36.59;101320.94;5091080;28;20016;-89
2022/04/19 10:08:57;;;;;;;7.95;4.15;;;;;;;17.42;35.64;101324.31;5081042;28;20055;-89
2022/04/19 10:11:25;;;;;;;8.23;4.32;;;;;;;17.45;34.75;101331.81;4978576;28;20038;-90
2022/04/19 10:13:57;;;;;;;8.60;4.30;;;;;;;17.45;35.64;101321.00;4953855;29;20035;-89
2022/04/19 10:16:22;;;;;;;9.23;5.50;;;;;;;17.58;35.48;101322.16;4953946;29;20290;-89
2022/04/19 10:19:07;;;;;;;;;;;;;;;;;;;;;
2022/04/19 10:25:15;;;;;;;;;;;;;;;;;;;;;
2022/04/19 10:40:26;;;;;;;;;;;;;;;;;;;;;
2022/04/19 10:43:22;;;;;;;6.88;3.90;;;;;;;18.48;34.66;101306.91;4972869;28;20098;-90
2022/04/19 10:49:50;;;;;;;7.20;4.10;;;;;;;18.78;33.81;101313.69;4976817;28;20093;-89
2022/04/19 10:55:41;;;;;;;10.20;4.37;;;;;;;18.88;33.63;101294.47;4999769;28;20108;-89
2022/04/19 10:58:48;;;;;;;7.27;4.30;;;;;;;19.00;32.94;101285.84;5055719;28;20280;-89
2022/04/19 11:07:01;;;;;;;10.77;5.03;;;;;;;18.94;32.99;101289.72;5127902;22;20049;-91
2022/04/19 11:13:22;;;;;;;;;;;;;;;;;;;;;
2022/04/19 11:16:13;;;;;;;11.50;5.20;;;;;;;18.81;33.42;101282.41;5043252;28;20043;-88
2022/04/19 11:19:18;;;;;;;10.40;5.43;;;;;;;18.93;33.24;101279.97;5065094;28;20037;-90
2022/04/19 11:21:56;;;;;;;11.63;5.47;;;;;;;18.90;33.42;101275.97;5218449;23;20027;-90
2022/04/19 11:24:59;;;;;;;8.37;5.07;;;;;;;19.03;33.76;101279.78;5072363;28;20024;-89
2022/04/19 11:27:52;;;;;;;8.53;5.43;;;;;;;19.14;33.86;101279.56;5078798;22;20377;-89
2022/04/19 11:30:18;;;;;;;10.77;5.35;;;;;;;18.98;34.02;101273.69;5052747;28;20090;-89
2022/04/19 11:32:51;;;;;;;10.90;6.00;;;;;;;18.99;33.97;101265.22;5071545;28;20583;-90
2022/04/19 11:35:22;;;;;;;8.10;4.43;;;;;;;19.21;32.96;101261.75;5072526;28;20111;-90
2022/04/19 11:37:48;;;;;;;11.13;5.15;;;;;;;19.29;32.84;101267.56;5071769;28;20028;-90
2022/04/19 11:48:44;;;;;;;9.10;4.10;;;;;;;19.68;31.62;101263.41;5070863;28;20047;-90
2022/04/19 11:51:11;;;;;;;9.23;4.10;;;;;;;19.66;31.11;101260.97;5052817;28;20109;-89
2022/04/19 11:53:37;;;;;;;7.20;3.92;;;;;;;19.70;31.41;101277.50;5071924;28;20016;-89
2022/04/19 11:56:04;;;;;;;5.87;3.80;;;;;;;19.90;31.46;101272.69;5071567;28;20525;-90
2022/04/19 11:58:30;;;;;;;7.85;3.70;;;;;;;20.04;31.53;101267.97;5053371;28;20144;-90
2022/04/19 12:01:06;;;;;;;9.27;4.50;;;;;;;20.16;29.77;101278.28;5071331;28;20028;-90
2022/04/19 12:06:14;;;;;;;11.38;4.15;;;;;;;20.24;29.75;101274.00;5078089;22;20049;-89
2022/04/19 12:08:49;;;;;;;7.65;3.80;;;;;;;20.15;30.78;101254.09;5070525;28;20096;-90
2022/04/19 12:11:35;;;;;;;9.18;4.15;;;;;;;20.32;31.84;101264.25;5077245;22;20032;-90
2022/04/19 12:14:47;;;;;;;11.07;4.35;;;;;;;20.42;31.00;101266.69;5051816;28;20036;-90
2022/04/19 12:17:27;;;;;;;7.97;4.32;;;;;;;20.25;30.60;101248.41;5071733;28;20032;-90
2022/04/19 12:23:20;;;;;;;9.00;4.60;;;;;;;20.13;31.56;101243.53;5050846;28;20370;-90
2022/04/19 12:26:24;;;;;;;8.98;4.72;;;;;;;20.36;31.36;101254.38;5051028;28;20028;-90
2022/04/19 12:29:30;;;;;;;9.63;4.80;;;;;;;20.48;31.74;101259.19;5050195;28;20075;-89
2022/04/19 12:32:51;;;;;;;9.15;4.50;;;;;;;20.81;31.40;101259.66;5051283;28;20037;-89
2022/04/19 12:35:35;;;;;;;10.27;4.82;;;;;;;20.65;30.85;101250.28;5051653;28;20035;-91
2022/04/19 12:38:42;;;;;;;9.85;4.95;;;;;;;20.71;31.03;101246.31;5050983;28;20021;-90
2022/04/19 12:43:49;;;;;;;10.18;4.65;;;;;;;20.57;30.73;101247.22;5273851;22;20048;-89
2022/04/19 12:46:30;;;;;;;12.35;4.63;;;;;;;20.54;30.87;101238.88;5077590;28;20028;-90
2022/04/19 12:49:24;;;;;;;9.57;4.63;;;;;;;20.47;30.51;101235.81;5081727;28;20043;-86
2022/04/19 12:52:05;;;;;;;7.63;4.60;;;;;;;20.56;30.77;101234.72;5094890;28;20290;-89
2022/04/19 12:54:33;;;;;;;9.02;4.00;;;;;;;20.53;29.04;101234.56;5092754;28;20024;-89
2022/04/19 12:57:13;;;;;;;14.98;4.78;;;;;;;20.35;29.98;101237.22;5074570;28;20421;-89
2022/04/19 13:02:15;;;;;;;8.05;4.65;;;;;;;20.24;29.26;101217.66;5122709;22;20052;-90
2022/04/19 13:05:02;;;;;;;8.75;4.15;;;;;;;20.41;30.63;101227.81;5055763;28;20048;-91
2022/04/19 13:13:20;;;;;;;9.30;3.97;;;;;;;20.45;30.09;101210.84;5056368;28;20123;-90
2022/04/19 13:15:45;;;;;;;6.83;3.83;;;;;;;20.50;29.66;101224.28;5056126;28;20052;-90
2022/04/19 13:18:25;;;;;;;8.50;4.40;;;;;;;20.48;30.34;101211.00;5056130;28;20036;-90
2022/04/19 13:20:51;;;;;;;8.90;4.22;;;;;;;20.45;29.40;101200.75;5055193;28;20017;-90
2022/04/19 13:23:19;;;;;;;7.83;5.00;;;;;;;20.53;29.72;101201.88;5055386;28;20035;-90
2022/04/19 13:26:18;;;;;;;9.47;4.60;;;;;;;20.71;30.97;101217.16;5055282;28;20699;-90
2022/04/19 13:28:48;;;;;;;9.15;4.85;;;;;;;20.80;30.01;101219.91;5054047;28;20396;-91
2022/04/19 13:31:25;;;;;;;9.05;4.90;;;;;;;20.92;30.18;101200.22;5054341;28;20096;-90
2022/04/19 13:33:51;;;;;;;13.70;5.57;;;;;;;20.93;29.90;101192.84;5036909;28;20025;-90
2022/04/19 13:36:39;;;;;;;11.87;5.30;;;;;;;21.32;31.05;101208.25;5054919;28;20017;-90
2022/04/19 13:39:05;;;;;;;9.35;5.40;;;;;;;21.22;29.83;101188.69;5053612;28;20032;-90
2022/04/19 13:41:30;;;;;;;8.02;5.22;;;;;;;21.46;29.80;101204.53;5068628;22;20638;-90
2022/04/19 13:44:17;;;;;;;11.17;5.67;;;;;;;21.67;30.15;101210.13;5075022;28;20111;-90
2022/04/19 13:46:59;;;;;;;11.27;6.50;;;;;;;21.46;29.92;101188.19;5073923;28;20100;-90
2022/04/19 13:55:58;;;;;;;9.90;5.72;;;;;;;21.64;29.21;101197.16;5280168;22;20060;-90
2022/04/19 13:58:24;;;;;;;9.07;5.40;;;;;;;21.56;29.09;101201.47;5055891;28;20035;-91
2022/04/19 14:03:25;;;;;;;8.90;5.13;;;;;;;21.40;28.62;101189.47;5457641;22;20049;-91
2022/04/19 14:05:59;;;;;;;10.97;5.70;;;;;;;21.33;29.12;101206.31;5076446;28;20270;-91
2022/04/19 14:08:32;;;;;;;10.13;5.43;;;;;;;20.98;29.64;101185.34;5077469;28;20472;-90
2022/04/19 14:10:58;;;;;;;12.07;6.00;;;;;;;21.02;29.84;101202.63;5194932;22;20313;-91
2022/04/19 14:13:25;;;;;;;8.55;5.10;;;;;;;20.98;29.50;101190.78;5057878;28;20024;-90